Time;durP1;ratioP1;P1;durP2;ratioP2;P2;SDS_P1;SDS_P2;PMS_P1;PMS_P2;Temp;Humidity;BMP_temperature;BMP_pressure;BME280_temperature;BME280_humidity;BME280_pressure;Samples;Min_cycle;Max_cycle;Signal;HPM_P1;HPM_P2
2022/07/20 00:01:19;;;;;;;6.05;4.18;;;31.60;1.00;;;;;;5152724;27;20072;-47
2022/07/20 00:03:45;;;;;;;5.38;3.90;;;31.50;1.00;;;;;;5149396;27;20521;-48
2022/07/20 00:06:12;;;;;;;5.82;4.05;;;31.60;1.00;;;;;;5152142;27;20405;-49
2022/07/20 00:11:23;;;;;;;7.47;3.83;;;31.50;1.00;;;;;;5156660;27;20026;-52
2022/07/20 00:14:25;;;;;;;4.65;4.10;;;31.40;1.00;;;;;;5155244;27;20100;-53
2022/07/20 00:16:51;;;;;;;5.90;4.07;;;31.30;1.00;;;;;;5147084;27;20568;-50
2022/07/20 00:19:17;;;;;;;9.32;4.28;;;31.40;1.00;;;;;;5135666;27;20385;-49
2022/07/20 00:21:43;;;;;;;5.85;4.30;;;31.50;1.00;;;;;;5143966;27;20023;-47
2022/07/20 00:24:08;;;;;;;6.03;4.45;;;31.50;1.00;;;;;;5153670;27;20514;-50
2022/07/20 00:26:34;;;;;;;11.48;4.50;;;31.30;1.00;;;;;;5155033;27;20026;-47
2022/07/20 00:28:59;;;;;;;6.18;4.07;;;31.40;1.00;;;;;;5155290;27;20042;-51
2022/07/20 00:31:25;;;;;;;7.90;4.22;;;31.40;1.00;;;;;;5156384;27;20185;-51
2022/07/20 00:33:51;;;;;;;5.97;4.10;;;31.70;1.00;;;;;;5153992;27;20041;-50
2022/07/20 00:36:17;;;;;;;4.90;4.20;;;31.40;1.00;;;;;;5155145;27;20047;-50
2022/07/20 00:38:43;;;;;;;7.10;4.55;;;31.40;1.00;;;;;;5152713;27;20106;-50
2022/07/20 00:41:09;;;;;;;6.03;3.90;;;31.50;1.00;;;;;;5146817;27;20062;-50
2022/07/20 00:43:53;;;;;;;7.32;4.32;;;31.50;1.00;;;;;;5153864;27;20070;-49
2022/07/20 00:46:19;;;;;;;5.55;4.20;;;31.50;1.00;;;;;;5154937;27;20038;-51
2022/07/20 00:48:44;;;;;;;5.28;4.57;;;31.50;1.00;;;;;;5153544;27;20026;-51
2022/07/20 00:51:10;;;;;;;4.60;4.22;;;31.50;1.00;;;;;;5155601;27;20030;-54
2022/07/20 00:53:36;;;;;;;7.85;4.20;;;31.40;1.00;;;;;;5154584;27;20029;-50
2022/07/20 00:56:02;;;;;;;4.90;4.10;;;31.40;1.00;;;;;;5155303;27;20072;-49
2022/07/20 00:58:28;;;;;;;5.20;3.88;;;31.40;1.00;;;;;;5154828;27;20023;-48
2022/07/20 01:00:54;;;;;;;4.68;4.13;;;31.50;1.00;;;;;;5155440;27;20135;-47
2022/07/20 01:03:19;;;;;;;6.00;4.15;;;31.50;1.00;;;;;;5152512;27;20081;-52
2022/07/20 01:05:45;;;;;;;6.07;4.28;;;31.60;1.00;;;;;;5154366;27;20071;-53
2022/07/20 01:08:11;;;;;;;7.35;4.00;;;31.40;1.00;;;;;;5154373;27;20119;-54
2022/07/20 01:10:37;;;;;;;8.63;3.97;;;31.30;1.00;;;;;;5154718;27;20491;-53
2022/07/20 01:13:03;;;;;;;7.55;4.30;;;31.30;1.00;;;;;;5154380;27;20034;-51
2022/07/20 01:15:29;;;;;;;6.03;4.20;;;31.30;1.00;;;;;;5152695;27;20058;-52
2022/07/20 01:17:54;;;;;;;4.32;3.83;;;31.20;1.00;;;;;;5154367;27;20435;-53
2022/07/20 01:20:24;;;;;;;7.70;3.90;;;31.30;1.00;;;;;;5136675;27;20027;-51
2022/07/20 01:22:50;;;;;;;7.43;3.97;;;31.10;1.00;;;;;;5150724;27;20159;-48
2022/07/20 01:25:15;;;;;;;4.60;3.78;;;30.90;1.00;;;;;;5154830;27;20035;-50
2022/07/20 01:27:41;;;;;;;7.97;3.83;;;31.00;1.00;;;;;;5152761;27;20042;-49
2022/07/20 01:30:07;;;;;;;6.90;4.10;;;30.80;1.00;;;;;;5154899;27;20498;-50
2022/07/20 01:32:33;;;;;;;6.13;4.03;;;30.90;1.00;;;;;;5152733;27;20019;-50
2022/07/20 01:34:59;;;;;;;4.15;3.25;;;30.90;1.00;;;;;;5148731;27;20098;-55
2022/07/20 01:37:25;;;;;;;8.13;4.25;;;30.80;1.00;;;;;;5150973;27;20057;-50
2022/07/20 01:39:51;;;;;;;6.45;3.72;;;30.70;1.00;;;;;;5150370;27;20015;-53
2022/07/20 01:42:17;;;;;;;7.13;3.83;;;30.60;1.00;;;;;;5153451;27;20034;-48
2022/07/20 01:44:42;;;;;;;5.65;3.33;;;30.70;1.00;;;;;;5153629;27;20038;-48
2022/07/20 01:47:08;;;;;;;5.60;3.65;;;30.70;1.00;;;;;;5154552;27;20468;-52
2022/07/20 01:49:34;;;;;;;4.72;3.65;;;30.90;1.00;;;;;;5153251;27;20034;-50
2022/07/20 01:52:00;;;;;;;3.85;3.55;;;30.90;1.00;;;;;;5154299;27;20131;-50
2022/07/20 01:54:26;;;;;;;9.30;3.38;;;30.90;1.00;;;;;;5150060;27;20023;-53
2022/07/20 01:56:52;;;;;;;6.60;3.35;;;30.70;1.00;;;;;;5133978;27;20119;-48
2022/07/20 01:59:17;;;;;;;5.55;3.03;;;30.80;1.00;;;;;;5147016;27;20029;-52
2022/07/20 02:01:43;;;;;;;3.67;3.00;;;30.80;1.00;;;;;;5153784;27;20494;-49
2022/07/20 02:04:09;;;;;;;5.90;3.28;;;30.90;1.00;;;;;;5153091;27;20034;-48
2022/07/20 02:06:35;;;;;;;7.43;3.45;;;30.90;1.00;;;;;;5154389;27;20019;-51
2022/07/20 02:09:01;;;;;;;4.05;3.47;;;30.90;1.00;;;;;;5151419;27;20063;-48
2022/07/20 02:11:26;;;;;;;4.90;3.55;;;30.90;1.00;;;;;;5154392;27;20030;-49
2022/07/20 02:13:52;;;;;;;5.53;3.58;;;30.90;1.00;;;;;;5151844;27;20376;-48
2022/07/20 02:16:18;;;;;;;4.43;3.70;;;30.90;1.00;;;;;;5153860;27;20452;-51
2022/07/20 02:18:55;;;;;;;4.10;3.50;;;30.80;1.00;;;;;;5153127;27;20476;-48
2022/07/20 02:21:22;;;;;;;5.40;4.28;;;30.80;1.00;;;;;;5154065;27;20014;-52
2022/07/20 02:23:48;;;;;;;4.22;3.45;;;30.60;1.00;;;;;;5145099;27;20035;-49
2022/07/20 02:26:14;;;;;;;5.15;3.80;;;30.50;1.00;;;;;;5150372;27;20046;-53
2022/07/20 02:28:39;;;;;;;6.05;3.70;;;30.50;1.00;;;;;;5151885;27;20051;-53
2022/07/20 02:31:05;;;;;;;4.32;3.30;;;30.30;1.00;;;;;;5153036;27;20018;-48
2022/07/20 02:33:31;;;;;;;5.88;3.35;;;30.30;1.00;;;;;;5151082;27;20511;-47
2022/07/20 02:35:57;;;;;;;3.65;3.20;;;30.40;1.00;;;;;;5143239;27;20065;-49
2022/07/20 02:38:24;;;;;;;4.40;4.00;;;30.40;1.00;;;;;;5152484;27;20105;-52
2022/07/20 02:40:49;;;;;;;6.13;3.92;;;30.50;1.00;;;;;;5153750;27;20029;-48
2022/07/20 02:43:15;;;;;;;7.35;3.72;;;30.50;1.00;;;;;;5150885;27;20660;-48
2022/07/20 02:45:41;;;;;;;7.22;4.05;;;30.60;1.00;;;;;;5150281;27;20030;-50
2022/07/20 02:48:06;;;;;;;5.60;3.40;;;30.50;1.00;;;;;;5152580;27;20533;-47
2022/07/20 02:50:36;;;;;;;5.90;3.53;;;30.50;1.00;;;;;;5153589;27;20027;-53
2022/07/20 02:53:02;;;;;;;6.68;3.88;;;30.50;1.00;;;;;;5148453;27;20472;-51
2022/07/20 02:55:28;;;;;;;4.57;3.63;;;30.50;1.00;;;;;;5146401;27;20058;-49
2022/07/20 02:57:54;;;;;;;3.50;3.28;;;30.50;1.00;;;;;;5147879;27;20095;-50
2022/07/20 03:00:20;;;;;;;3.90;3.60;;;30.40;1.00;;;;;;5144521;27;20159;-49
2022/07/20 03:02:47;;;;;;;3.83;3.50;;;30.40;1.00;;;;;;5136573;27;20034;-49
2022/07/20 03:05:13;;;;;;;4.40;3.38;;;30.50;1.00;;;;;;5141931;27;20039;-47
2022/07/20 03:07:39;;;;;;;3.72;3.42;;;30.40;1.00;;;;;;5144322;27;21358;-50
2022/07/20 03:10:06;;;;;;;5.43;3.63;;;30.60;1.00;;;;;;5135575;27;20027;-48
2022/07/20 03:12:32;;;;;;;3.60;3.30;;;30.60;1.00;;;;;;5142778;27;20517;-54
2022/07/20 03:14:58;;;;;;;5.28;3.72;;;30.60;1.00;;;;;;5135294;27;20108;-48
2022/07/20 03:17:23;;;;;;;3.67;3.25;;;30.50;1.00;;;;;;5150485;27;20054;-49
2022/07/20 03:19:49;;;;;;;4.32;3.60;;;30.60;1.00;;;;;;5149492;27;20035;-49
2022/07/20 03:22:15;;;;;;;3.97;3.45;;;30.50;1.00;;;;;;5152807;27;20019;-49
2022/07/20 03:24:41;;;;;;;4.63;4.07;;;30.60;1.00;;;;;;5150547;27;20121;-47
2022/07/20 03:27:06;;;;;;;5.97;4.10;;;30.60;1.00;;;;;;5141919;27;20076;-48
2022/07/20 03:29:32;;;;;;;4.82;4.00;;;30.60;1.00;;;;;;5150967;27;20549;-50
2022/07/20 03:31:58;;;;;;;3.88;3.42;;;30.60;1.00;;;;;;5153070;27;20019;-47
2022/07/20 03:34:23;;;;;;;4.32;3.92;;;30.50;1.00;;;;;;5136895;27;20090;-48
2022/07/20 03:36:49;;;;;;;4.47;3.53;;;30.70;1.00;;;;;;5148780;27;20047;-47
2022/07/20 03:39:15;;;;;;;6.05;3.35;;;30.60;1.00;;;;;;5152406;27;20046;-50
2022/07/20 03:41:41;;;;;;;4.22;3.70;;;30.60;1.00;;;;;;5142689;27;20045;-47
2022/07/20 03:44:07;;;;;;;4.82;4.40;;;30.80;1.00;;;;;;5144393;27;20125;-51
2022/07/20 03:46:33;;;;;;;5.82;4.03;;;30.80;1.00;;;;;;5151753;27;20453;-48
2022/07/20 03:48:59;;;;;;;5.97;4.30;;;30.80;1.00;;;;;;5145325;27;20023;-48
2022/07/20 03:51:25;;;;;;;8.43;4.40;;;30.70;1.00;;;;;;5152099;27;20098;-47
2022/07/20 03:53:50;;;;;;;4.38;3.80;;;30.70;1.00;;;;;;5151230;27;20140;-46
2022/07/20 03:56:16;;;;;;;6.63;4.30;;;30.60;1.00;;;;;;5153178;27;20071;-51
2022/07/20 03:58:42;;;;;;;4.72;4.30;;;30.60;1.00;;;;;;5155786;27;20075;-49
2022/07/20 04:01:08;;;;;;;6.00;4.20;;;30.50;1.00;;;;;;5155173;27;20027;-47
2022/07/20 04:04:20;;;;;;;4.57;4.18;;;30.50;1.00;;;;;;5155512;27;20396;-50
2022/07/20 04:06:45;;;;;;;4.32;3.92;;;30.50;1.00;;;;;;5147907;27;20035;-47
2022/07/20 04:09:11;;;;;;;6.75;4.43;;;30.50;1.00;;;;;;5148810;27;20609;-47
2022/07/20 04:11:37;;;;;;;5.78;3.95;;;30.40;1.00;;;;;;5153625;27;20077;-49
2022/07/20 04:14:02;;;;;;;5.38;4.90;;;30.40;1.00;;;;;;5156203;27;20011;-47
2022/07/20 04:16:28;;;;;;;5.57;3.80;;;30.40;1.00;;;;;;5155193;27;20041;-46
2022/07/20 04:18:53;;;;;;;6.93;4.55;;;30.40;1.00;;;;;;5145262;27;20019;-49
2022/07/20 04:21:19;;;;;;;7.28;4.32;;;30.20;1.00;;;;;;5149950;27;20149;-47
2022/07/20 04:23:45;;;;;;;5.20;4.25;;;30.30;1.00;;;;;;5154117;27;20027;-48
2022/07/20 04:26:11;;;;;;;6.85;4.45;;;30.10;1.00;;;;;;5154051;27;20050;-48
2022/07/20 04:28:36;;;;;;;5.13;4.40;;;30.20;1.00;;;;;;5154929;27;20018;-49
2022/07/20 04:31:02;;;;;;;5.43;4.28;;;30.20;1.00;;;;;;5155356;27;20068;-48
2022/07/20 04:33:27;;;;;;;10.68;4.82;;;30.20;1.00;;;;;;5153412;27;20095;-50
2022/07/20 04:35:54;;;;;;;7.05;4.95;;;30.10;1.00;;;;;;5142827;27;20039;-47
2022/07/20 04:38:20;;;;;;;5.38;4.28;;;30.00;1.00;;;;;;5150953;27;20031;-48
2022/07/20 04:40:46;;;;;;;4.97;4.47;;;30.10;1.00;;;;;;5154140;27;20384;-52
2022/07/20 04:43:12;;;;;;;5.70;4.25;;;30.00;1.00;;;;;;5145911;27;20079;-53
2022/07/20 04:45:37;;;;;;;7.03;4.97;;;30.10;1.00;;;;;;5153855;27;20026;-51
2022/07/20 04:48:03;;;;;;;6.57;4.30;;;30.10;1.00;;;;;;5154853;27;20019;-53
2022/07/20 04:50:29;;;;;;;7.47;4.40;;;30.10;1.00;;;;;;5152909;27;20444;-52
2022/07/20 04:52:54;;;;;;;7.75;4.60;;;30.10;1.00;;;;;;5152691;27;20011;-51
2022/07/20 04:55:20;;;;;;;7.20;4.70;;;30.10;1.00;;;;;;5153265;27;20022;-51
2022/07/20 04:57:46;;;;;;;4.93;3.90;;;30.10;1.00;;;;;;5154082;27;20368;-50
2022/07/20 05:00:12;;;;;;;7.28;3.92;;;30.00;1.00;;;;;;5154117;27;20033;-51
2022/07/20 05:02:37;;;;;;;5.20;4.05;;;30.00;1.00;;;;;;5154301;27;20023;-48
2022/07/20 05:05:05;;;;;;;5.10;4.60;;;30.00;1.00;;;;;;5153298;27;20041;-48
2022/07/20 05:07:30;;;;;;;6.30;4.07;;;30.10;1.00;;;;;;5153331;27;20023;-53
2022/07/20 05:09:56;;;;;;;5.32;4.50;;;30.00;1.00;;;;;;5150548;27;20157;-48
2022/07/20 05:12:21;;;;;;;5.10;4.63;;;30.00;1.00;;;;;;5153854;27;20018;-53
2022/07/20 05:14:48;;;;;;;6.03;4.43;;;30.00;1.00;;;;;;5153418;27;20106;-46
2022/07/20 05:17:13;;;;;;;7.75;4.07;;;30.00;1.00;;;;;;5153777;27;20413;-52
2022/07/20 05:19:39;;;;;;;8.27;4.75;;;30.00;1.00;;;;;;5155068;27;20038;-53
2022/07/20 05:22:04;;;;;;;6.35;4.72;;;30.00;1.00;;;;;;5153897;27;20460;-52
2022/07/20 05:24:30;;;;;;;6.22;4.50;;;30.00;1.00;;;;;;5153951;27;20091;-49
2022/07/20 05:26:55;;;;;;;7.18;4.40;;;30.00;1.00;;;;;;5150470;27;20030;-48
2022/07/20 05:29:21;;;;;;;5.82;4.13;;;30.00;1.00;;;;;;5146762;27;20038;-46
2022/07/20 05:31:47;;;;;;;5.70;4.13;;;30.00;1.00;;;;;;5144999;27;20019;-47
2022/07/20 05:34:12;;;;;;;5.93;3.70;;;30.00;1.00;;;;;;5148930;27;20143;-49
2022/07/20 05:36:38;;;;;;;8.13;4.75;;;30.00;1.00;;;;;;5145911;27;20050;-50
2022/07/20 05:39:04;;;;;;;8.68;4.63;;;29.90;1.00;;;;;;5153620;27;20015;-48
2022/07/20 05:41:29;;;;;;;4.93;3.75;;;30.00;1.00;;;;;;5153031;27;20127;-51
2022/07/20 05:43:55;;;;;;;4.85;4.35;;;30.00;1.00;;;;;;5154767;27;20083;-47
2022/07/20 05:46:21;;;;;;;5.40;4.15;;;30.00;1.00;;;;;;5150005;27;20087;-48
2022/07/20 05:48:46;;;;;;;4.53;3.92;;;30.10;1.00;;;;;;5150670;27;20038;-53
2022/07/20 05:51:12;;;;;;;4.47;3.80;;;30.00;1.00;;;;;;5151662;27;20371;-51
2022/07/20 05:53:38;;;;;;;5.47;3.97;;;29.90;1.00;;;;;;5146394;27;20019;-49
2022/07/20 05:56:04;;;;;;;6.63;3.90;;;30.00;1.00;;;;;;5146432;27;20050;-51
2022/07/20 05:58:30;;;;;;;4.50;3.70;;;29.90;1.00;;;;;;5147263;27;20387;-49
2022/07/20 06:00:56;;;;;;;4.93;3.60;;;30.00;1.00;;;;;;5148821;27;20117;-50
2022/07/20 06:03:22;;;;;;;8.10;3.88;;;30.10;1.00;;;;;;5151497;27;20030;-50
2022/07/20 06:05:47;;;;;;;9.60;3.65;;;30.10;1.00;;;;;;5153092;27;20114;-48
2022/07/20 06:08:13;;;;;;;7.63;3.92;;;30.30;1.00;;;;;;5148061;27;20388;-50
2022/07/20 06:10:39;;;;;;;8.00;3.78;;;30.20;1.00;;;;;;5150797;27;20065;-48
2022/07/20 06:13:05;;;;;;;8.95;3.60;;;30.20;1.00;;;;;;5139873;27;20432;-48
2022/07/20 06:15:30;;;;;;;6.05;3.38;;;30.50;1.00;;;;;;5151864;27;20050;-49
2022/07/20 06:17:56;;;;;;;9.00;3.85;;;30.50;1.00;;;;;;5153402;27;20029;-50
2022/07/20 06:20:23;;;;;;;5.80;3.10;;;30.60;1.00;;;;;;5152335;27;20027;-48
2022/07/20 06:22:49;;;;;;;5.50;3.25;;;30.50;1.00;;;;;;5152188;27;20098;-52
2022/07/20 06:25:16;;;;;;;5.25;3.42;;;30.60;1.00;;;;;;5149145;27;20074;-53
2022/07/20 06:27:42;;;;;;;3.45;3.15;;;30.80;1.00;;;;;;5140805;27;20044;-50
2022/07/20 06:30:09;;;;;;;6.40;3.75;;;30.40;1.00;;;;;;5141192;27;20027;-50
2022/07/20 06:32:35;;;;;;;4.97;3.45;;;30.30;1.00;;;;;;5150744;27;20030;-51
2022/07/20 06:35:01;;;;;;;5.05;3.60;;;30.40;1.00;;;;;;5147002;27;20027;-51
2022/07/20 06:37:26;;;;;;;4.88;3.15;;;30.40;1.00;;;;;;5151875;27;20128;-49
2022/07/20 06:39:52;;;;;;;6.90;3.67;;;30.40;1.00;;;;;;5136282;27;20115;-51
2022/07/20 06:42:18;;;;;;;6.00;3.42;;;30.40;1.00;;;;;;5149750;27;20160;-48
2022/07/20 06:44:44;;;;;;;7.47;3.55;;;30.40;1.00;;;;;;5151396;27;20030;-48
2022/07/20 06:47:10;;;;;;;6.30;3.40;;;30.40;1.00;;;;;;5152540;27;20030;-46
2022/07/20 06:49:36;;;;;;;5.45;2.92;;;30.50;1.00;;;;;;5149610;27;20033;-49
2022/07/20 06:52:03;;;;;;;7.13;3.65;;;30.40;1.00;;;;;;5147836;27;20023;-48
2022/07/20 06:54:28;;;;;;;3.78;2.45;;;30.40;1.00;;;;;;5153413;27;20476;-47
2022/07/20 06:56:54;;;;;;;3.92;2.70;;;30.50;1.00;;;;;;5146407;27;20103;-53
2022/07/20 06:59:20;;;;;;;5.63;2.80;;;30.40;1.00;;;;;;5133684;27;20380;-58
2022/07/20 07:01:46;;;;;;;4.80;2.70;;;30.40;1.00;;;;;;5139500;27;20447;-58
2022/07/20 07:04:12;;;;;;;2.90;2.53;;;30.50;1.00;;;;;;5140607;27;20211;-58
2022/07/20 07:06:38;;;;;;;3.28;2.42;;;30.50;1.00;;;;;;5142685;27;20476;-59
2022/07/20 07:09:04;;;;;;;3.67;2.58;;;30.50;1.00;;;;;;5141220;27;20029;-60
2022/07/20 07:11:30;;;;;;;3.47;2.25;;;30.60;1.00;;;;;;5142778;27;20106;-62
2022/07/20 07:13:56;;;;;;;3.10;2.75;;;30.50;1.00;;;;;;5142351;27;20199;-60
2022/07/20 07:16:21;;;;;;;3.42;2.63;;;30.50;1.00;;;;;;5135773;27;20161;-59
2022/07/20 07:18:47;;;;;;;7.40;2.78;;;30.60;1.00;;;;;;5141028;27;20087;-70
2022/07/20 07:21:13;;;;;;;3.55;2.55;;;30.60;1.00;;;;;;5139710;27;20043;-69
2022/07/20 07:23:39;;;;;;;5.45;2.58;;;30.60;1.00;;;;;;5141670;27;20039;-60
2022/07/20 07:26:04;;;;;;;3.28;2.63;;;30.60;1.00;;;;;;5139233;27;20117;-69
2022/07/20 07:28:31;;;;;;;3.33;2.70;;;30.50;1.00;;;;;;5141015;27;20102;-80
2022/07/20 07:30:57;;;;;;;2.60;2.40;;;30.50;1.00;;;;;;5141374;27;20101;-64
2022/07/20 07:33:25;;;;;;;4.13;2.65;;;30.40;1.00;;;;;;5143024;27;20115;-58
2022/07/20 07:35:54;;;;;;;4.88;2.80;;;30.40;1.00;;;;;;5143875;27;20048;-61
2022/07/20 07:38:20;;;;;;;7.82;2.80;;;30.80;1.00;;;;;;5144538;27;20027;-59
2022/07/20 07:40:46;;;;;;;2.60;2.35;;;30.90;1.00;;;;;;5146067;27;20019;-61
2022/07/20 07:43:12;;;;;;;3.45;3.15;;;31.10;1.00;;;;;;5145735;27;20128;-60
2022/07/20 07:45:38;;;;;;;3.17;2.90;;;31.20;1.00;;;;;;5145940;27;20113;-60
2022/07/20 07:48:05;;;;;;;2.83;2.63;;;31.30;1.00;;;;;;5143055;27;20026;-59
2022/07/20 07:50:31;;;;;;;5.35;3.17;;;31.40;1.00;;;;;;5143725;27;20019;-59
2022/07/20 07:52:57;;;;;;;3.65;2.70;;;31.50;1.00;;;;;;5142731;27;20447;-59
2022/07/20 07:55:23;;;;;;;2.83;2.63;;;31.30;1.00;;;;;;5147430;27;20134;-60
2022/07/20 07:57:49;;;;;;;2.72;2.53;;;31.50;1.00;;;;;;5140142;27;20023;-58
2022/07/20 08:00:15;;;;;;;5.65;2.40;;;31.60;1.00;;;;;;5145507;27;20553;-51
2022/07/20 08:02:41;;;;;;;5.43;2.90;;;31.70;1.00;;;;;;5138213;27;20026;-49
2022/07/20 08:05:07;;;;;;;4.80;2.60;;;31.60;1.00;;;;;;5143063;27;20326;-53
2022/07/20 08:07:36;;;;;;;2.85;2.58;;;31.60;1.00;;;;;;5143291;27;20023;-65
2022/07/20 08:10:04;;;;;;;3.75;2.65;;;31.70;1.00;;;;;;5142672;27;20035;-64
2022/07/20 08:12:30;;;;;;;4.32;2.50;;;31.80;1.00;;;;;;5138487;27;20023;-60
2022/07/20 08:14:55;;;;;;;3.28;2.20;;;31.80;1.00;;;;;;5142572;27;20042;-61
2022/07/20 08:17:21;;;;;;;4.00;2.95;;;31.80;1.00;;;;;;5147337;27;20019;-57
2022/07/20 08:19:46;;;;;;;4.53;2.50;;;31.60;1.00;;;;;;5143946;27;20027;-53
2022/07/20 08:22:12;;;;;;;4.82;2.92;;;31.90;1.00;;;;;;5142630;27;20447;-57
2022/07/20 08:24:38;;;;;;;6.97;2.75;;;32.20;1.00;;;;;;5141205;27;20046;-57
2022/07/20 08:27:04;;;;;;;3.85;2.47;;;32.20;1.00;;;;;;5144339;27;20018;-50
2022/07/20 08:29:29;;;;;;;4.13;2.70;;;32.20;1.00;;;;;;5146377;27;20087;-53
2022/07/20 08:31:55;;;;;;;4.72;3.55;;;32.40;1.00;;;;;;5145714;27;20029;-65
2022/07/20 08:34:21;;;;;;;5.90;3.05;;;32.90;1.00;;;;;;5140893;27;20054;-54
2022/07/20 08:36:46;;;;;;;5.13;2.90;;;32.70;1.00;;;;;;5146381;27;20527;-49
2022/07/20 08:39:12;;;;;;;4.03;2.72;;;33.20;1.00;;;;;;5143789;27;20417;-59
2022/07/20 08:41:38;;;;;;;3.15;2.80;;;33.80;1.00;;;;;;5147298;27;20109;-59
2022/07/20 08:44:04;;;;;;;6.55;3.20;;;34.00;1.00;;;;;;5145137;27;20050;-59
2022/07/20 08:46:32;;;;;;;3.67;2.72;;;34.30;1.00;;;;;;5146938;27;20019;-60
2022/07/20 08:48:59;;;;;;;3.75;3.45;;;34.50;1.00;;;;;;5145640;27;20027;-58
2022/07/20 08:51:25;;;;;;;4.18;3.10;;;34.30;1.00;;;;;;5146278;27;20011;-50
2022/07/20 08:53:52;;;;;;;4.22;3.10;;;34.30;1.00;;;;;;5143329;27;20023;-47
2022/07/20 08:56:17;;;;;;;4.95;3.45;;;34.60;1.00;;;;;;5144608;27;20034;-57
2022/07/20 08:58:43;;;;;;;6.15;3.95;;;34.60;1.00;;;;;;5145629;27;20039;-56
2022/07/20 09:01:19;;;;;;;4.47;3.30;;;34.60;1.00;;;;;;5140265;27;20019;-61
2022/07/20 09:04:09;;;;;;;3.25;2.67;;;33.90;1.00;;;;;;5139825;27;20058;-64
2022/07/20 09:06:35;;;;;;;6.63;3.25;;;33.90;1.00;;;;;;5141679;27;20038;-59
2022/07/20 09:09:06;;;;;;;5.88;3.10;;;34.30;1.00;;;;;;5139347;27;20041;-52
2022/07/20 09:11:33;;;;;;;4.18;2.83;;;34.10;1.00;;;;;;5143482;27;20016;-60
2022/07/20 09:13:59;;;;;;;3.63;3.33;;;34.30;1.00;;;;;;5138100;27;20031;-63
2022/07/20 09:16:42;;;;;;;4.60;3.35;;;34.60;1.00;;;;;;5143383;27;20023;-60
2022/07/20 09:19:08;;;;;;;4.00;2.85;;;34.80;1.00;;;;;;5142145;27;20330;-52
2022/07/20 09:21:34;;;;;;;5.65;3.40;;;35.00;1.00;;;;;;5142633;27;20034;-59
2022/07/20 09:24:05;;;;;;;4.95;3.90;;;34.30;1.00;;;;;;5142958;27;20046;-59
2022/07/20 09:26:31;;;;;;;6.47;3.35;;;34.10;1.00;;;;;;5141055;27;20039;-59
2022/07/20 09:28:58;;;;;;;6.13;3.22;;;34.40;1.00;;;;;;5145972;27;20720;-58
2022/07/20 09:31:29;;;;;;;5.20;3.38;;;34.50;1.00;;;;;;5137139;27;20034;-58
2022/07/20 09:34:00;;;;;;;7.20;3.42;;;34.60;1.00;;;;;;5138691;27;20123;-56
2022/07/20 09:36:29;;;;;;;3.67;3.22;;;34.90;1.00;;;;;;5139736;27;20043;-57
2022/07/20 09:39:07;;;;;;;5.07;3.78;;;35.10;1.00;;;;;;5140546;27;20022;-57
2022/07/20 09:41:34;;;;;;;6.05;3.42;;;35.00;1.00;;;;;;5140059;27;20027;-58
2022/07/20 09:44:01;;;;;;;8.07;4.07;;;35.40;1.00;;;;;;5142435;27;20046;-59
2022/07/20 09:46:30;;;;;;;7.65;5.03;;;35.10;1.00;;;;;;5136350;27;20020;-59
2022/07/20 09:49:07;;;;;;;4.40;4.00;;;34.90;1.00;;;;;;5138307;27;20035;-59
2022/07/20 09:51:39;;;;;;;6.13;3.80;;;34.70;1.00;;;;;;5136651;27;20029;-60
2022/07/20 09:54:07;;;;;;;4.05;3.55;;;34.90;1.00;;;;;;5138890;27;20134;-51
2022/07/20 09:56:35;;;;;;;5.88;3.67;;;35.10;1.00;;;;;;5139662;27;20026;-60
2022/07/20 09:59:04;;;;;;;5.32;3.90;;;35.20;1.00;;;;;;5140176;27;20019;-56
2022/07/20 10:01:32;;;;;;;5.40;3.47;;;35.50;1.00;;;;;;5141255;27;20029;-58
2022/07/20 10:03:59;;;;;;;7.45;4.03;;;35.20;1.00;;;;;;5144413;27;20052;-60
2022/07/20 10:06:26;;;;;;;3.60;3.38;;;35.40;1.00;;;;;;5144197;27;20117;-56
2022/07/20 10:08:52;;;;;;;3.42;3.03;;;35.50;1.00;;;;;;5146295;27;20078;-59
2022/07/20 10:11:20;;;;;;;14.80;13.30;;;35.30;1.00;;;;;;5142926;27;20026;-58
2022/07/20 10:13:48;;;;;;;6.47;4.78;;;35.80;1.00;;;;;;5140532;27;20027;-62
2022/07/20 10:16:36;;;;;;;6.78;6.15;;;35.50;1.00;;;;;;5146517;27;20436;-59
2022/07/20 10:19:04;;;;;;;5.38;4.97;;;35.60;1.00;;;;;;5145118;27;20025;-53
2022/07/20 10:21:34;;;;;;;7.30;4.20;;;35.70;1.00;;;;;;5138984;27;20026;-60
2022/07/20 10:24:32;;;;;;;5.35;3.42;;;35.90;1.00;;;;;;5141946;27;20375;-61
2022/07/20 10:27:16;;;;;;;7.22;3.95;;;35.60;1.00;;;;;;5136929;27;20488;-62
2022/07/20 10:29:42;;;;;;;;;;;35.90;1.00;;;;;;5140580;27;20030;-58
2022/07/20 10:32:25;;;;;;;3.90;3.50;;;35.70;1.00;;;;;;5141485;27;19946;-57
2022/07/20 10:35:03;;;;;;;3.75;2.97;;;36.00;1.00;;;;;;5144567;27;20522;-48
2022/07/20 10:37:45;;;;;;;4.30;3.60;;;35.70;1.00;;;;;;5143239;27;20091;-57
2022/07/20 10:40:18;;;;;;;3.13;2.88;;;35.60;1.00;;;;;;5140159;27;20027;-58
2022/07/20 10:42:48;;;;;;;5.65;3.20;;;35.50;1.00;;;;;;5140695;27;20027;-52
2022/07/20 10:45:17;;;;;;;3.60;3.10;;;36.10;1.00;;;;;;5140295;27;20519;-61
2022/07/20 10:47:48;;;;;;;3.53;3.25;;;36.00;1.00;;;;;;5142112;27;20062;-61
2022/07/20 10:50:24;;;;;;;4.05;3.38;;;36.00;1.00;;;;;;5144010;27;20019;-61
2022/07/20 10:52:56;;;;;;;4.50;3.40;;;35.40;1.00;;;;;;5146722;27;20367;-60
2022/07/20 10:55:34;;;;;;;3.92;3.60;;;35.40;1.00;;;;;;5141222;27;20310;-59
2022/07/20 10:58:06;;;;;;;3.97;3.58;;;35.70;1.00;;;;;;5142475;27;20428;-59
2022/07/20 11:00:34;;;;;;;3.97;3.67;;;35.40;1.00;;;;;;5136846;27;20015;-59
2022/07/20 11:03:14;;;;;;;4.15;3.75;;;35.80;1.00;;;;;;5140289;27;20133;-59
2022/07/20 11:05:40;;;;;;;3.72;3.42;;;36.10;1.00;;;;;;5141631;27;20038;-59
2022/07/20 11:08:10;;;;;;;13.48;8.85;;;36.00;1.00;;;;;;5147356;27;20034;-59
2022/07/20 11:10:37;;;;;;;6.57;5.22;;;35.90;1.00;;;;;;5144644;27;20129;-61
2022/07/20 11:13:09;;;;;;;8.40;6.45;;;35.90;1.00;;;;;;5146366;27;20079;-62
2022/07/20 11:15:45;;;;;;;11.20;7.95;;;35.40;1.00;;;;;;5146862;27;20379;-61
2022/07/20 11:18:13;;;;;;;5.28;4.75;;;35.40;1.00;;;;;;5143902;27;20098;-66
2022/07/20 11:20:48;;;;;;;4.25;3.00;;;35.30;1.00;;;;;;5147207;27;20030;-61
2022/07/20 11:23:16;;;;;;;4.47;3.70;;;35.20;1.00;;;;;;5145362;27;20430;-61
2022/07/20 11:25:55;;;;;;;4.80;3.25;;;35.30;1.00;;;;;;5150130;27;20031;-64
2022/07/20 11:28:33;;;;;;;6.60;3.85;;;35.50;1.00;;;;;;5145531;27;20101;-65
2022/07/20 11:31:00;;;;;;;5.55;4.30;;;35.30;1.00;;;;;;5142153;27;20172;-63
2022/07/20 11:33:30;;;;;;;5.70;3.97;;;35.60;1.00;;;;;;5142425;27;20027;-65
2022/07/20 11:36:00;;;;;;;4.68;4.18;;;36.00;1.00;;;;;;5149133;27;20107;-63
2022/07/20 11:38:42;;;;;;;4.03;3.72;;;36.60;1.00;;;;;;5145532;27;20451;-63
2022/07/20 11:41:18;;;;;;;4.35;3.95;;;37.00;1.00;;;;;;5141958;27;20140;-63
2022/07/20 11:43:44;;;;;;;5.53;4.40;;;37.20;1.00;;;;;;5142745;27;20126;-63
2022/07/20 11:46:13;;;;;;;7.50;3.60;;;37.40;1.00;;;;;;5142220;27;20030;-64
2022/07/20 11:48:40;;;;;;;4.88;4.20;;;37.90;1.00;;;;;;5143043;27;20042;-64
2022/07/20 11:51:06;;;;;;;4.20;3.90;;;39.50;1.00;;;;;;5142494;27;20507;-64
2022/07/20 11:53:35;;;;;;;5.13;3.88;;;40.70;1.00;;;;;;5143141;27;20027;-63
2022/07/20 11:56:02;;;;;;;6.40;4.07;;;41.80;1.00;;;;;;5143723;27;20030;-64
2022/07/20 11:58:30;;;;;;;5.57;4.30;;;42.50;1.00;;;;;;5143472;27;20018;-63
2022/07/20 12:00:57;;;;;;;5.72;3.72;;;42.30;1.00;;;;;;5144474;27;20115;-63
2022/07/20 12:03:30;;;;;;;4.05;3.75;;;42.70;1.00;;;;;;5142933;27;20023;-62
2022/07/20 12:06:01;;;;;;;4.15;3.80;;;43.50;1.00;;;;;;5141104;27;20019;-63
2022/07/20 12:08:27;;;;;;;7.97;4.82;;;44.00;1.00;;;;;;5148986;27;20033;-63
2022/07/20 12:10:53;;;;;;;4.60;3.80;;;44.50;1.00;;;;;;5144056;27;20023;-63
2022/07/20 12:13:19;;;;;;;4.60;3.70;;;44.10;1.00;;;;;;5146051;27;20022;-62
2022/07/20 12:16:11;;;;;;;5.15;4.10;;;41.80;1.00;;;;;;5143552;27;20038;-62
2022/07/20 12:18:41;;;;;;;4.20;3.95;;;40.50;1.00;;;;;;5144007;27;20115;-65
2022/07/20 12:21:10;;;;;;;4.18;3.88;;;39.70;1.00;;;;;;5141852;27;20262;-52
2022/07/20 12:23:37;;;;;;;6.43;4.50;;;38.90;1.00;;;;;;5143926;27;20080;-56
2022/07/20 12:26:23;;;;;;;6.22;4.53;;;38.50;1.00;;;;;;5139935;27;20019;-59
2022/07/20 12:28:49;;;;;;;6.32;4.13;;;37.90;1.00;;;;;;5140293;27;20031;-59
2022/07/20 12:31:17;;;;;;;3.75;3.55;;;37.80;1.00;;;;;;5140711;27;20035;-60
2022/07/20 12:34:05;;;;;;;4.55;4.13;;;37.70;1.00;;;;;;5143058;27;20019;-56
2022/07/20 12:36:51;;;;;;;5.05;4.65;;;37.60;1.00;;;;;;5141607;27;20515;-58
2022/07/20 12:39:47;;;;;;;4.53;3.80;;;37.40;1.00;;;;;;5143805;27;20039;-59
2022/07/20 12:42:22;;;;;;;7.75;3.72;;;37.10;1.00;;;;;;5144531;27;20019;-61
2022/07/20 12:44:56;;;;;;;4.93;4.43;;;37.20;1.00;;;;;;5147756;27;20250;-57
2022/07/20 12:47:22;;;;;;;6.32;5.85;;;36.80;1.00;;;;;;5144497;27;20054;-56
2022/07/20 12:49:47;;;;;;;5.38;4.38;;;36.20;1.00;;;;;;5142592;27;20495;-59
2022/07/20 12:52:13;;;;;;;7.43;3.70;;;36.20;1.00;;;;;;5141403;27;20099;-59
2022/07/20 12:54:38;;;;;;;6.97;4.00;;;36.50;1.00;;;;;;5143786;27;20023;-59
2022/07/20 12:57:04;;;;;;;5.22;4.68;;;36.70;1.00;;;;;;5141865;27;20571;-52
2022/07/20 12:59:30;;;;;;;5.88;4.40;;;36.40;1.00;;;;;;5142515;27;20030;-58
2022/07/20 13:01:55;;;;;;;4.50;4.20;;;36.30;1.00;;;;;;5143415;27;20101;-54
2022/07/20 13:04:23;;;;;;;8.45;4.18;;;36.40;1.00;;;;;;5141893;27;20031;-60